Time;durP1;ratioP1;P1;durP2;ratioP2;P2;SDS_P1;SDS_P2;PMS_P1;PMS_P2;Temp;Humidity;BMP_temperature;BMP_pressure;BME280_temperature;BME280_humidity;BME280_pressure;Samples;Min_cycle;Max_cycle;Signal;HPM_P1;HPM_P2
2023/03/30 00:01:55;;;;;;;20.15;3.60;;;13.40;99.90;;;12.48;100.00;97036.97;5050708;28;20412;-73
2023/03/30 00:04:25;;;;;;;13.43;3.33;;;13.30;99.90;;;12.43;100.00;97033.56;5050941;28;20879;-73
2023/03/30 00:06:53;;;;;;;14.60;3.60;;;13.20;99.90;;;12.49;100.00;97033.25;5050761;28;20406;-73
2023/03/30 00:09:19;;;;;;;12.32;3.08;;;13.30;99.90;;;12.54;100.00;97035.91;5050867;28;20426;-73
2023/03/30 00:11:45;;;;;;;9.57;2.60;;;13.30;99.90;;;12.55;100.00;97036.72;5050563;28;20437;-73
2023/03/30 00:14:11;;;;;;;18.80;3.75;;;13.30;99.90;;;12.52;100.00;97034.59;5050720;28;20515;-73
2023/03/30 00:16:37;;;;;;;12.05;2.67;;;13.30;99.90;;;12.48;100.00;97036.97;5050743;28;20405;-73
2023/03/30 00:19:02;;;;;;;22.40;4.03;;;13.30;99.90;;;12.72;100.00;97032.63;5032661;28;20420;-73
2023/03/30 00:21:30;;;;;;;15.43;3.50;;;13.50;99.90;;;12.71;100.00;97022.28;5049585;28;21493;-73
2023/03/30 00:23:57;;;;;;;18.43;4.03;;;13.50;99.90;;;12.66;100.00;97028.41;5050566;28;20498;-73
2023/03/30 00:26:23;;;;;;;12.38;3.10;;;13.50;99.90;;;12.73;100.00;97020.94;5050653;28;20402;-73
2023/03/30 00:28:49;;;;;;;11.88;3.05;;;13.50;99.90;;;12.80;100.00;97015.31;5050291;28;20397;-73
2023/03/30 00:31:15;;;;;;;15.15;2.90;;;13.50;99.90;;;12.88;100.00;97014.75;5049657;28;20402;-73
2023/03/30 00:33:42;;;;;;;14.77;2.90;;;13.60;99.90;;;12.83;100.00;97022.75;5050278;28;20932;-73
2023/03/30 00:36:08;;;;;;;12.73;3.83;;;13.60;99.90;;;12.80;100.00;97015.31;5050512;28;20749;-73
2023/03/30 00:38:34;;;;;;;14.35;2.85;;;13.60;99.90;;;12.84;100.00;97011.06;5050385;28;20435;-73
2023/03/30 00:41:01;;;;;;;8.90;3.03;;;13.60;99.90;;;12.75;100.00;97005.53;5050353;28;20416;-73
2023/03/30 00:43:28;;;;;;;14.40;3.28;;;13.50;99.90;;;12.65;100.00;97005.56;5050144;28;20409;-73
2023/03/30 00:45:56;;;;;;;14.30;3.47;;;13.40;99.90;;;12.55;100.00;96999.53;5050325;28;20477;-72
2023/03/30 00:48:26;;;;;;;16.13;3.50;;;13.40;99.90;;;12.58;100.00;96985.69;5050314;28;20450;-72
2023/03/30 00:50:57;;;;;;;21.33;3.97;;;13.30;99.90;;;12.50;100.00;96991.56;5050103;28;20393;-72
2023/03/30 00:53:27;;;;;;;13.50;2.80;;;13.30;99.90;;;12.56;100.00;96996.59;5050052;28;20396;-73
2023/03/30 00:55:55;;;;;;;11.93;3.10;;;13.30;99.90;;;12.49;100.00;96988.13;5050102;28;20401;-72
2023/03/30 00:58:25;;;;;;;19.25;4.03;;;13.30;99.90;;;12.48;100.00;96978.56;5050101;28;20397;-72
2023/03/30 01:00:51;;;;;;;20.50;4.15;;;13.30;99.90;;;12.45;100.00;96986.31;5031949;28;20958;-72
2023/03/30 01:03:23;;;;;;;15.65;4.00;;;13.30;99.90;;;12.68;100.00;96980.34;5049948;28;20393;-72
2023/03/30 01:05:51;;;;;;;14.20;3.40;;;13.40;99.90;;;12.58;100.00;96981.19;5050060;28;20527;-74
2023/03/30 01:08:18;;;;;;;14.35;2.90;;;13.40;99.90;;;12.62;100.00;96968.97;5050092;28;20926;-72
2023/03/30 01:10:45;;;;;;;12.95;3.30;;;13.40;99.90;;;12.58;100.00;96975.09;5050065;28;20397;-73
2023/03/30 01:13:13;;;;;;;12.10;2.90;;;13.40;99.90;;;12.58;100.00;96965.25;5049814;28;20493;-72
2023/03/30 01:16:02;;;;;;;13.88;2.83;;;13.40;99.90;;;12.48;100.00;96972.50;5050122;28;20397;-73
2023/03/30 01:18:43;;;;;;;9.38;2.72;;;13.30;99.90;;;12.44;100.00;96974.88;5049993;28;20828;-72
2023/03/30 01:21:58;;;;;;;13.75;3.58;;;13.20;99.90;;;12.47;100.00;96978.88;5049798;28;20567;-72
2023/03/30 01:24:57;;;;;;;16.43;3.80;;;13.30;99.90;;;12.47;100.00;96986.81;5049962;28;20985;-73
2023/03/30 01:27:53;;;;;;;19.77;3.72;;;13.30;99.90;;;12.54;100.00;97004.06;5049856;28;20422;-72
2023/03/30 01:30:37;;;;;;;17.13;3.60;;;13.30;99.90;;;12.58;100.00;97025.53;5049928;28;20393;-72
2023/03/30 01:33:53;;;;;;;20.42;4.45;;;13.30;99.90;;;12.69;100.00;97001.31;5049787;28;20397;-72
2023/03/30 01:36:48;;;;;;;15.18;3.40;;;13.40;99.90;;;12.78;100.00;97002.31;5023669;28;20483;-73
2023/03/30 01:39:40;;;;;;;24.38;4.28;;;13.40;99.90;;;12.59;100.00;96989.94;5049598;28;20397;-73
2023/03/30 01:42:17;;;;;;;22.70;4.13;;;13.40;99.90;;;12.58;100.00;96983.03;5049949;28;20736;-72
2023/03/30 01:44:50;;;;;;;22.60;4.50;;;13.40;99.90;;;12.39;100.00;96985.53;5053536;28;20405;-71
2023/03/30 01:47:22;;;;;;;18.90;3.88;;;13.20;99.90;;;12.12;100.00;96969.16;5053507;28;20433;-72
2023/03/30 01:49:57;;;;;;;14.60;3.90;;;13.00;99.90;;;12.11;100.00;96978.19;5053481;28;20397;-72
2023/03/30 01:52:27;;;;;;;22.63;4.90;;;12.80;99.90;;;11.86;100.00;96990.47;5053112;28;20405;-72
2023/03/30 01:55:01;;;;;;;18.08;3.80;;;12.70;99.90;;;11.77;100.00;96996.59;5053374;28;20425;-72
2023/03/30 01:57:34;;;;;;;19.20;4.88;;;12.60;99.90;;;11.73;100.00;96990.22;5053322;28;20467;-72
2023/03/30 02:00:14;;;;;;;23.52;4.22;;;12.60;99.90;;;11.71;100.00;96985.16;5053243;28;20509;-72
2023/03/30 02:02:47;;;;;;;21.95;4.10;;;12.60;99.90;;;11.67;100.00;96980.66;5052936;28;20405;-71
2023/03/30 02:05:17;;;;;;;16.67;3.90;;;12.50;99.90;;;11.75;100.00;96986.25;5053176;28;20466;-71
2023/03/30 02:07:46;;;;;;;17.35;4.07;;;12.50;99.90;;;11.88;100.00;96985.66;5053035;28;20409;-71
2023/03/30 02:10:17;;;;;;;16.40;4.47;;;12.60;99.90;;;11.77;100.00;96985.97;5053124;28;20759;-71
2023/03/30 02:12:44;;;;;;;16.50;4.65;;;12.60;99.90;;;11.82;100.00;96992.06;5052876;28;20451;-71
2023/03/30 02:15:13;;;;;;;17.20;3.75;;;12.60;99.90;;;11.78;100.00;96992.88;5052947;28;20576;-71
2023/03/30 02:17:41;;;;;;;10.93;3.30;;;12.60;99.90;;;11.80;100.00;96988.88;5052870;28;20408;-71
2023/03/30 02:20:09;;;;;;;24.30;5.35;;;12.60;99.90;;;11.78;100.00;96998.19;5052731;28;20425;-71
2023/03/30 02:22:36;;;;;;;21.85;5.43;;;12.60;99.90;;;11.87;100.00;96992.06;5052492;28;20393;-71
2023/03/30 02:25:02;;;;;;;15.87;3.60;;;12.60;99.90;;;11.80;100.00;96996.81;5052748;28;20465;-71
2023/03/30 02:27:31;;;;;;;13.77;3.63;;;12.60;99.90;;;11.91;100.00;97006.38;5052437;28;20405;-72
2023/03/30 02:29:57;;;;;;;17.07;3.50;;;12.70;99.90;;;11.83;100.00;97006.13;5052862;28;20397;-71
2023/03/30 02:32:26;;;;;;;20.65;4.47;;;12.60;99.90;;;12.01;100.00;97016.97;5052394;28;20394;-72
2023/03/30 02:35:17;;;;;;;17.40;4.18;;;12.70;99.90;;;11.88;100.00;97008.75;5052599;28;20421;-72
2023/03/30 02:38:05;;;;;;;17.90;4.03;;;12.70;99.90;;;12.14;100.00;97012.94;5052568;28;20405;-72
2023/03/30 02:40:45;;;;;;;23.85;4.50;;;12.70;99.90;;;11.99;100.00;97003.16;5052532;28;20424;-72
2023/03/30 02:43:37;;;;;;;18.08;3.92;;;12.80;99.90;;;11.89;100.00;97010.34;5052231;28;20756;-72
2023/03/30 02:46:20;;;;;;;18.90;4.07;;;12.70;99.90;;;12.16;100.00;97002.06;5052404;28;20417;-72
2023/03/30 02:48:59;;;;;;;20.10;4.40;;;12.80;99.90;;;12.03;100.00;97004.22;5052324;28;20543;-72
2023/03/30 02:51:39;;;;;;;22.83;4.43;;;12.80;99.90;;;12.01;100.00;97001.06;5052163;28;20400;-72
2023/03/30 02:54:18;;;;;;;25.42;4.35;;;12.80;99.90;;;12.00;100.00;96990.69;5051427;28;20405;-72
2023/03/30 02:56:53;;;;;;;18.57;4.33;;;12.80;99.90;;;11.95;100.00;96985.41;5052266;28;20874;-72
2023/03/30 02:59:26;;;;;;;19.83;4.10;;;12.70;99.90;;;11.79;100.00;96979.34;5052076;28;20405;-73
2023/03/30 03:01:57;;;;;;;15.82;4.20;;;12.60;99.90;;;11.76;100.00;96971.91;5051902;28;20425;-72
2023/03/30 03:04:27;;;;;;;35.22;6.05;;;12.50;99.90;;;11.50;100.00;96952.56;5052233;28;20875;-73
2023/03/30 03:06:54;;;;;;;28.52;5.75;;;12.30;99.90;;;11.32;100.00;96962.94;5052075;28;20440;-72
2023/03/30 03:09:23;;;;;;;24.48;4.82;;;12.20;99.90;;;11.27;100.00;96942.53;5052032;28;20993;-73
2023/03/30 03:11:50;;;;;;;25.45;5.65;;;12.10;99.90;;;11.13;100.00;96944.09;5051649;28;20413;-72
2023/03/30 03:14:16;;;;;;;22.02;5.18;;;12.00;99.90;;;11.03;100.00;96942.28;5052075;28;20394;-72
2023/03/30 03:16:43;;;;;;;23.10;5.05;;;11.90;99.90;;;10.96;100.00;96941.75;5052011;28;20425;-72
2023/03/30 03:19:09;;;;;;;32.45;5.50;;;11.80;99.90;;;10.89;100.00;96925.31;5051660;28;20398;-72
2023/03/30 03:21:35;;;;;;;19.40;5.50;;;11.80;99.90;;;10.88;100.00;96936.97;5051522;28;21062;-72
2023/03/30 03:24:02;;;;;;;22.05;5.38;;;11.70;99.90;;;10.82;100.00;96920.28;5051736;28;20401;-72
2023/03/30 03:26:28;;;;;;;24.67;5.00;;;11.70;99.90;;;10.85;100.00;96929.53;5051645;28;20877;-72
2023/03/30 03:28:54;;;;;;;31.60;5.80;;;11.70;99.90;;;10.93;100.00;96922.91;5033731;28;20405;-72
2023/03/30 03:31:20;;;;;;;32.13;5.85;;;11.70;99.90;;;10.84;100.00;96918.16;5051318;28;20725;-71
2023/03/30 03:33:49;;;;;;;24.67;5.43;;;11.70;99.90;;;10.78;100.00;96932.44;5051501;28;20397;-73
2023/03/30 03:36:15;;;;;;;29.73;6.22;;;11.60;99.90;;;10.72;100.00;96936.16;5051566;28;20503;-72
2023/03/30 03:38:41;;;;;;;34.23;6.10;;;11.60;99.90;;;10.75;100.00;96913.66;5033526;28;20926;-73
2023/03/30 03:41:08;;;;;;;29.07;5.97;;;11.60;99.90;;;10.70;100.00;96913.63;5033408;28;20425;-72
2023/03/30 03:43:34;;;;;;;27.70;5.40;;;11.60;99.90;;;10.65;100.00;96924.22;5051111;28;20489;-72
2023/03/30 03:46:00;;;;;;;26.33;5.80;;;11.50;99.90;;;10.65;100.00;96916.28;5051302;28;20918;-72
2023/03/30 03:48:26;;;;;;;30.10;6.45;;;11.50;99.90;;;10.65;100.00;96934.81;5051266;28;20475;-72
2023/03/30 03:50:56;;;;;;;26.90;6.47;;;11.50;99.90;;;10.61;100.00;96934.53;5051070;28;20398;-72
2023/03/30 03:53:24;;;;;;;36.22;6.70;;;11.40;99.90;;;10.61;100.00;96934.53;5050966;28;20814;-72
2023/03/30 03:55:50;;;;;;;30.25;7.25;;;11.50;99.90;;;10.59;100.00;96923.44;5051043;28;20397;-72
2023/03/30 03:58:17;;;;;;;29.80;6.28;;;11.40;99.90;;;10.63;100.00;96924.47;5050536;28;21009;-72
2023/03/30 04:00:43;;;;;;;26.67;6.00;;;11.50;99.90;;;10.68;100.00;96928.97;5031930;28;20422;-72
2023/03/30 04:03:11;;;;;;;24.00;6.27;;;11.50;99.90;;;10.65;100.00;96921.56;5050177;28;20866;-72
2023/03/30 04:05:37;;;;;;;23.02;6.35;;;11.50;99.90;;;10.72;100.00;96916.81;5050348;28;20437;-71
2023/03/30 04:08:07;;;;;;;27.83;5.60;;;11.60;99.90;;;10.69;100.00;96917.34;5050362;28;20402;-71
2023/03/30 04:10:33;;;;;;;31.98;5.82;;;11.50;99.90;;;10.75;100.00;96911.00;5047963;28;20495;-72
2023/03/30 04:12:59;;;;;;;32.83;6.55;;;11.60;99.90;;;10.77;100.00;96898.28;5050159;28;20485;-71
2023/03/30 04:15:26;;;;;;;27.67;5.40;;;11.60;99.90;;;10.77;100.00;96893.00;5050258;28;20424;-71
2023/03/30 04:17:56;;;;;;;28.45;6.22;;;11.60;99.90;;;10.78;100.00;96884.00;5049990;28;20401;-71
2023/03/30 04:20:23;;;;;;;22.58;5.22;;;11.60;99.90;;;10.79;100.00;96859.91;5048835;28;20417;-70
2023/03/30 04:22:52;;;;;;;39.30;6.80;;;11.60;99.90;;;10.71;100.00;96857.78;5048478;28;20466;-71
2023/03/30 04:25:20;;;;;;;25.85;6.57;;;11.60;99.90;;;10.72;100.00;96855.94;5047912;28;20763;-71
2023/03/30 04:27:49;;;;;;;30.77;5.77;;;11.60;99.90;;;10.70;100.00;96856.19;5062281;22;20473;-71
2023/03/30 04:30:16;;;;;;;24.00;5.47;;;11.60;99.90;;;10.76;100.00;96844.53;5038337;28;20540;-72
2023/03/30 04:32:43;;;;;;;29.70;5.80;;;11.60;99.90;;;10.67;100.00;96843.50;5031498;28;20494;-73
2023/03/30 04:35:09;;;;;;;34.15;6.85;;;11.60;99.90;;;10.71;100.00;96846.41;5042266;28;20878;-72
2023/03/30 04:37:37;;;;;;;29.13;6.07;;;11.50;99.90;;;10.72;100.00;96840.84;5038856;28;20408;-72
2023/03/30 04:40:08;;;;;;;24.07;5.33;;;11.60;99.90;;;10.70;100.00;96831.56;5028763;28;20415;-72
2023/03/30 04:42:37;;;;;;;28.77;6.10;;;11.60;99.90;;;10.65;100.00;96835.03;5029983;28;20943;-73
2023/03/30 04:45:04;;;;;;;31.65;5.75;;;11.50;99.90;;;10.65;100.00;96829.72;5030447;28;20407;-73
2023/03/30 04:47:30;;;;;;;27.87;6.23;;;11.50;99.90;;;10.62;100.00;96829.44;5030205;28;20399;-73
2023/03/30 04:49:56;;;;;;;27.63;6.10;;;11.50;99.90;;;10.64;100.00;96832.63;5030023;28;20482;-73
2023/03/30 04:52:22;;;;;;;30.40;5.43;;;11.50;99.90;;;10.66;100.00;96828.69;5029352;28;20406;-72
2023/03/30 04:54:48;;;;;;;31.33;6.82;;;11.50;99.90;;;10.67;100.00;96829.47;5029951;28;20899;-72
2023/03/30 04:57:15;;;;;;;24.42;5.85;;;11.50;99.90;;;10.69;100.00;96828.13;5030231;28;20402;-72
2023/03/30 04:59:43;;;;;;;24.25;5.43;;;11.60;99.90;;;10.81;100.00;96831.31;5029402;28;20399;-72
2023/03/30 05:02:10;;;;;;;25.27;5.35;;;11.60;99.90;;;10.76;100.00;96831.31;5029707;28;20407;-72
2023/03/30 05:04:36;;;;;;;21.25;5.35;;;11.60;99.90;;;10.75;100.00;96840.31;5029920;28;20427;-72
2023/03/30 05:07:04;;;;;;;31.33;5.73;;;11.60;99.90;;;10.73;100.00;96842.44;5030099;28;20403;-72
2023/03/30 05:09:29;;;;;;;14.13;4.03;;;11.60;99.90;;;10.73;100.00;96831.84;5029924;28;20468;-72
2023/03/30 05:11:55;;;;;;;20.27;4.53;;;11.60;99.90;;;10.74;100.00;96822.06;5029840;28;20490;-72
2023/03/30 05:14:21;;;;;;;23.80;5.82;;;11.60;99.90;;;10.74;100.00;96822.06;5030168;28;20885;-72
2023/03/30 05:16:48;;;;;;;30.63;6.80;;;11.60;99.90;;;10.73;100.00;96818.63;5030078;28;20768;-72
2023/03/30 05:19:15;;;;;;;16.25;4.90;;;11.60;99.90;;;10.72;100.00;96813.59;5033944;28;20884;-72
2023/03/30 05:21:41;;;;;;;26.70;5.43;;;11.60;99.90;;;10.71;100.00;96807.50;5015824;28;20501;-73
2023/03/30 05:24:07;;;;;;;20.40;6.15;;;11.60;99.90;;;10.68;100.00;96812.50;5033983;28;20494;-71
2023/03/30 05:26:33;;;;;;;25.40;5.85;;;11.50;99.90;;;10.65;100.00;96807.75;5033981;28;20411;-72
2023/03/30 05:28:59;;;;;;;17.98;4.72;;;11.50;99.90;;;10.62;100.00;96800.34;5033869;28;20457;-72
2023/03/30 05:31:25;;;;;;;27.88;5.53;;;11.50;99.90;;;10.60;100.00;96797.94;5033519;28;20825;-73
2023/03/30 05:33:53;;;;;;;25.65;5.38;;;11.50;99.90;;;10.60;100.00;96787.38;5033787;28;20403;-73
2023/03/30 05:36:19;;;;;;;27.25;5.53;;;11.50;99.90;;;10.62;100.00;96795.84;5033742;28;20457;-72
2023/03/30 05:38:45;;;;;;;17.60;5.10;;;11.50;99.90;;;10.66;100.00;96788.97;5033766;28;20403;-72
2023/03/30 05:41:10;;;;;;;25.97;6.90;;;11.50;99.90;;;10.72;100.00;96789.75;5033608;28;20453;-71
2023/03/30 05:43:36;;;;;;;17.98;4.85;;;11.60;99.90;;;10.77;100.00;96784.44;5033255;28;20450;-71
2023/03/30 05:46:03;;;;;;;12.38;4.40;;;11.60;99.90;;;10.81;100.00;96783.66;5032172;28;21509;-71
2023/03/30 05:48:29;;;;;;;14.07;4.27;;;11.60;99.90;;;10.86;100.00;96796.09;5022926;28;20449;-73
2023/03/30 05:50:56;;;;;;;25.48;5.43;;;11.70;99.90;;;10.82;100.00;96806.44;5004825;28;20443;-74
2023/03/30 05:53:22;;;;;;;24.73;5.57;;;11.70;99.90;;;10.96;100.00;96811.19;5021698;28;20479;-73
2023/03/30 05:55:49;;;;;;;23.25;5.45;;;11.70;99.90;;;10.97;100.00;96816.22;5023290;28;20851;-72
2023/03/30 05:58:16;;;;;;;18.10;4.70;;;11.80;99.90;;;10.97;100.00;96821.50;5024047;28;20900;-73
2023/03/30 06:00:47;;;;;;;27.08;5.60;;;11.80;99.90;;;11.01;100.00;96829.69;5020820;28;20770;-73
2023/03/30 06:03:13;;;;;;;27.15;5.15;;;11.80;99.90;;;11.01;100.00;96838.44;5013392;28;20393;-72
2023/03/30 06:05:40;;;;;;;18.40;4.53;;;11.90;99.90;;;11.04;100.00;96845.06;5013442;28;20405;-72
2023/03/30 06:08:09;;;;;;;18.30;4.90;;;11.90;99.90;;;11.06;100.00;96853.53;5013616;28;20799;-73
2023/03/30 06:10:36;;;;;;;27.95;5.65;;;11.90;99.90;;;11.04;100.00;96859.13;5013386;28;20432;-73
2023/03/30 06:13:02;;;;;;;19.75;4.43;;;11.90;99.90;;;11.02;100.00;96869.16;4995417;28;20487;-72
2023/03/30 06:15:28;;;;;;;19.13;4.47;;;11.80;99.90;;;11.03;100.00;96885.84;5013416;28;20408;-73
2023/03/30 06:17:55;;;;;;;19.67;5.67;;;11.80;99.90;;;11.02;100.00;96887.72;5020902;28;20897;-73
2023/03/30 06:20:23;;;;;;;23.35;5.13;;;11.90;99.90;;;11.07;100.00;96897.50;5032293;28;20422;-73
2023/03/30 06:22:50;;;;;;;30.50;6.05;;;11.90;99.90;;;11.07;100.00;96900.94;5032688;28;20403;-73
2023/03/30 06:25:22;;;;;;;22.85;5.50;;;11.90;99.90;;;11.05;100.00;96887.16;5032856;28;20939;-73
2023/03/30 06:27:48;;;;;;;28.92;5.63;;;11.90;99.90;;;11.26;100.00;96895.91;5032720;28;20402;-73
2023/03/30 06:30:14;;;;;;;24.00;4.83;;;12.00;99.90;;;11.14;100.00;96896.16;5031465;28;20403;-73
2023/03/30 06:32:41;;;;;;;27.65;5.60;;;11.90;99.90;;;11.13;100.00;96886.63;5032534;28;20414;-72
2023/03/30 06:35:07;;;;;;;33.63;6.60;;;11.90;99.90;;;11.12;100.00;96897.50;5032787;28;20430;-72
2023/03/30 06:37:35;;;;;;;25.58;5.90;;;11.90;99.90;;;11.28;100.00;96911.53;5030845;28;20780;-72
2023/03/30 06:40:07;;;;;;;29.17;6.13;;;12.00;99.90;;;11.22;100.00;96913.38;5031470;28;20598;-72
2023/03/30 06:42:35;;;;;;;25.48;5.60;;;12.00;99.90;;;11.42;100.00;96912.59;5031992;28;20897;-72
2023/03/30 06:45:02;;;;;;;21.23;5.32;;;12.10;99.90;;;11.43;100.00;96911.50;5034248;28;20406;-72
2023/03/30 06:47:28;;;;;;;22.17;5.67;;;12.20;99.90;;;11.38;100.00;96938.00;5044534;28;20438;-73
2023/03/30 06:49:54;;;;;;;14.70;4.55;;;12.20;99.90;;;11.39;100.00;96956.31;5042843;28;20885;-73
2023/03/30 06:52:19;;;;;;;22.73;4.80;;;12.20;99.90;;;11.47;100.00;96955.75;5044589;28;20406;-73
2023/03/30 06:54:46;;;;;;;27.25;5.55;;;12.20;99.90;;;11.46;100.00;96963.97;5035282;28;20442;-73
2023/03/30 06:57:12;;;;;;;19.30;5.43;;;12.20;99.90;;;11.38;100.00;96977.75;5027218;28;20916;-71
2023/03/30 06:59:39;;;;;;;26.97;5.80;;;12.20;99.90;;;11.51;100.00;96977.22;5031245;28;20987;-72
2023/03/30 07:02:05;;;;;;;18.67;5.00;;;12.20;99.90;;;11.39;100.00;96982.00;5030101;28;20913;-72
2023/03/30 07:04:31;;;;;;;16.42;4.60;;;12.20;99.90;;;11.43;100.00;96991.78;5019505;28;20495;-75
2023/03/30 07:06:58;;;;;;;22.02;5.63;;;12.20;99.90;;;11.41;100.00;97001.09;5046388;28;20401;-71
2023/03/30 07:09:25;;;;;;;17.30;4.65;;;12.20;99.90;;;11.43;100.00;97017.50;5027849;28;20909;-71
2023/03/30 07:11:51;;;;;;;22.52;5.45;;;12.20;99.90;;;11.44;100.00;97011.16;5042625;28;20414;-74
2023/03/30 07:14:17;;;;;;;21.30;5.60;;;12.20;99.90;;;11.41;100.00;97003.75;5031638;28;20417;-74
2023/03/30 07:16:44;;;;;;;22.47;5.13;;;12.20;99.90;;;11.36;100.00;96998.44;5032445;28;20413;-75
2023/03/30 07:19:10;;;;;;;28.95;5.60;;;12.20;99.90;;;11.34;100.00;97014.59;5047897;28;20962;-74
2023/03/30 07:21:36;;;;;;;24.20;5.90;;;12.20;99.90;;;11.30;100.00;97021.47;5030929;28;20422;-76
2023/03/30 07:24:02;;;;;;;20.50;5.57;;;12.10;99.90;;;11.31;100.00;97032.88;5041996;28;20955;-76
2023/03/30 07:26:29;;;;;;;23.65;5.97;;;12.10;99.90;;;11.29;100.00;97030.47;5019834;28;20411;-76
2023/03/30 07:28:55;;;;;;;26.08;6.07;;;12.10;99.90;;;11.23;100.00;97048.25;5047847;28;20909;-76
2023/03/30 07:31:23;;;;;;;33.58;7.68;;;12.10;99.90;;;11.15;100.00;97056.69;5036182;28;20448;-74
2023/03/30 07:33:50;;;;;;;22.90;6.13;;;12.00;99.90;;;11.12;100.00;97049.28;5042707;28;20418;-75
2023/03/30 07:36:17;;;;;;;34.40;7.13;;;12.00;99.90;;;11.09;100.00;97015.38;5043642;28;20405;-75
2023/03/30 07:38:43;;;;;;;30.10;7.33;;;12.00;99.90;;;11.06;100.00;97009.78;5035214;28;20477;-76
2023/03/30 07:41:12;;;;;;;25.55;7.05;;;11.90;99.90;;;11.03;100.00;97021.72;5047125;28;20462;-78
2023/03/30 07:43:39;;;;;;;23.10;6.00;;;11.90;99.90;;;10.96;100.00;97001.84;5031148;28;20403;-76
2023/03/30 07:46:05;;;;;;;29.58;6.65;;;11.80;99.90;;;10.91;100.00;97004.47;5042031;28;20404;-82
2023/03/30 07:48:31;;;;;;;21.75;6.97;;;11.80;99.90;;;10.90;100.00;97003.66;5036930;28;20458;-79
2023/03/30 07:51:04;;;;;;;31.27;7.65;;;11.80;99.90;;;10.89;100.00;97004.75;5047375;28;20402;-82
2023/03/30 07:53:30;;;;;;;29.52;7.28;;;11.70;99.90;;;10.86;100.00;97002.63;5036014;28;20408;-77
2023/03/30 07:55:56;;;;;;;32.77;8.33;;;11.70;99.90;;;10.80;100.00;97001.81;5031286;28;20412;-77
2023/03/30 07:58:22;;;;;;;26.75;7.13;;;11.70;99.90;;;10.74;100.00;96981.69;5029126;28;20416;-76
2023/03/30 08:00:48;;;;;;;31.20;7.72;;;11.60;99.90;;;10.74;100.00;96988.84;5028520;28;20867;-79
2023/03/30 08:03:14;;;;;;;21.65;6.70;;;11.60;99.90;;;10.77;100.00;96997.03;5030606;28;20436;-79
2023/03/30 08:05:41;;;;;;;27.75;7.82;;;11.60;99.90;;;10.82;100.00;97009.50;5030789;28;20403;-79
2023/03/30 08:08:09;;;;;;;19.40;6.67;;;11.70;99.90;;;10.92;100.00;97022.75;5034798;28;20916;-78
2023/03/30 08:10:35;;;;;;;21.90;6.50;;;11.80;99.90;;;10.94;100.00;97036.53;5030955;28;20410;-77
2023/03/30 08:13:01;;;;;;;20.77;6.80;;;11.80;99.90;;;10.97;100.00;97051.13;5030338;28;20490;-76
2023/03/30 08:15:27;;;;;;;20.77;6.63;;;11.80;99.90;;;10.95;100.00;97072.56;5043128;28;20408;-80
2023/03/30 08:17:53;;;;;;;22.58;6.40;;;11.80;99.90;;;10.93;100.00;97087.09;5034501;28;20543;-80
2023/03/30 08:20:19;;;;;;;29.35;7.38;;;11.80;99.90;;;10.89;100.00;97102.72;5025360;28;20414;-79
2023/03/30 08:22:46;;;;;;;23.50;6.70;;;11.80;99.90;;;10.96;100.00;97113.06;5030634;28;20410;-76
2023/03/30 08:25:14;;;;;;;26.08;6.80;;;11.80;99.90;;;10.94;100.00;97094.00;5030373;28;20399;-78
2023/03/30 08:27:40;;;;;;;28.45;7.40;;;11.80;99.90;;;10.98;100.00;97081.81;5030607;28;20403;-75
2023/03/30 08:30:07;;;;;;;26.60;6.82;;;11.80;99.90;;;10.97;100.00;97090.84;5030603;28;20734;-76
2023/03/30 08:32:33;;;;;;;25.08;6.15;;;11.80;99.90;;;10.92;100.00;97062.47;5029616;28;20530;-77
2023/03/30 08:34:59;;;;;;;24.77;7.07;;;11.80;99.90;;;10.94;100.00;97062.22;5032977;28;20952;-79
2023/03/30 08:37:25;;;;;;;26.92;7.28;;;11.80;99.90;;;10.95;100.00;97061.97;5031441;28;20404;-84
2023/03/30 08:39:51;;;;;;;31.42;7.45;;;11.80;99.90;;;10.98;100.00;97063.28;5030898;28;20430;-78
2023/03/30 08:42:46;;;;;;;25.83;6.95;;;11.80;99.90;;;10.96;100.00;97063.56;5030590;28;20403;-75
2023/03/30 08:45:13;;;;;;;33.95;8.02;;;11.80;99.90;;;10.97;100.00;97056.41;5035646;28;20395;-82
2023/03/30 08:47:43;;;;;;;32.85;7.88;;;11.80;99.90;;;10.89;100.00;97044.47;5031989;28;20407;-83
2023/03/30 08:50:15;;;;;;;24.70;6.30;;;11.70;99.90;;;10.85;100.00;97040.75;5032835;28;20400;-80
2023/03/30 08:52:41;;;;;;;25.75;6.75;;;11.70;99.90;;;10.80;100.00;97035.44;5029854;28;20880;-76
2023/03/30 08:55:21;;;;;;;27.10;7.05;;;11.60;99.90;;;10.82;100.00;97015.59;5028963;28;20443;-76
2023/03/30 08:57:54;;;;;;;22.08;6.43;;;11.70;99.90;;;10.82;100.00;97005.00;5030534;28;20476;-75
2023/03/30 09:00:31;;;;;;;27.40;6.75;;;11.70;99.90;;;10.78;100.00;97011.06;5033683;28;20517;-81
2023/03/30 09:03:09;;;;;;;27.50;6.45;;;11.60;99.90;;;10.73;100.00;97003.91;5037056;28;20403;-83
2023/03/30 09:05:42;;;;;;;20.92;6.15;;;11.60;99.90;;;10.78;100.00;96997.84;5028387;28;20434;-79
2023/03/30 09:08:16;;;;;;;20.65;6.90;;;11.60;99.90;;;10.80;100.00;96999.16;5031066;28;20429;-78
2023/03/30 09:10:48;;;;;;;21.13;6.17;;;11.70;99.90;;;10.85;100.00;96993.88;5028460;28;20403;-80
2023/03/30 09:13:22;;;;;;;20.10;5.93;;;11.70;99.90;;;10.83;100.00;96988.03;5027943;28;20423;-80
2023/03/30 09:15:55;;;;;;;15.50;5.80;;;11.70;99.90;;;10.88;100.00;96989.91;5013406;28;20418;-74
2023/03/30 09:18:28;;;;;;;20.07;5.50;;;11.70;99.90;;;11.09;100.00;96994.19;5028023;28;20512;-75
2023/03/30 09:20:57;;;;;;;18.15;6.00;;;11.80;99.90;;;10.99;100.00;96977.47;5024173;28;20420;-75
2023/03/30 09:23:24;;;;;;;13.20;4.80;;;11.80;99.90;;;10.93;100.00;96978.53;5028064;28;20498;-73
2023/03/30 09:26:02;;;;;;;10.00;4.30;;;11.80;99.90;;;10.92;100.00;96980.38;5032242;28;20501;-74
2023/03/30 09:28:37;;;;;;;13.05;4.80;;;11.80;99.90;;;10.91;100.00;96978.00;5028521;28;20490;-74
2023/03/30 09:31:12;;;;;;;10.57;4.43;;;11.70;99.90;;;10.98;100.00;96976.69;5029256;28;20403;-77
2023/03/30 09:33:45;;;;;;;12.90;4.22;;;11.80;99.90;;;11.01;100.00;97000.00;5029335;28;20897;-79
2023/03/30 09:36:15;;;;;;;12.65;4.53;;;11.80;99.90;;;10.98;100.00;97003.16;5033505;28;20512;-80
2023/03/30 09:38:43;;;;;;;14.15;4.07;;;11.80;99.90;;;11.03;100.00;96995.25;5028600;28;20414;-80
2023/03/30 09:41:30;;;;;;;15.88;4.53;;;11.80;99.90;;;11.09;100.00;97012.72;5028303;28;20896;-80
2023/03/30 09:43:59;;;;;;;9.85;4.05;;;11.80;99.90;;;11.10;100.00;97021.47;5037081;28;20836;-77
2023/03/30 09:46:25;;;;;;;11.15;4.28;;;11.90;99.90;;;11.18;100.00;97029.69;5027975;28;20403;-75
2023/03/30 09:48:51;;;;;;;11.43;4.47;;;11.90;99.90;;;11.31;100.00;97052.22;5011994;28;20430;-75
2023/03/30 09:51:21;;;;;;;10.48;4.20;;;12.10;99.90;;;11.29;100.00;97045.59;5029534;28;20400;-76
2023/03/30 09:53:49;;;;;;;10.45;4.05;;;12.10;99.90;;;11.27;100.00;97048.53;5028314;28;20473;-75
2023/03/30 09:56:27;;;;;;;8.15;3.78;;;12.10;99.90;;;11.35;100.00;97045.31;5028950;28;20423;-73
2023/03/30 09:58:54;;;;;;;10.25;4.18;;;12.20;99.90;;;11.28;100.00;97058.03;5025785;28;20426;-73
2023/03/30 10:01:37;;;;;;;11.10;4.47;;;12.10;99.90;;;11.33;100.00;97057.25;5027054;28;20936;-74
2023/03/30 10:04:07;;;;;;;12.90;3.85;;;12.20;99.90;;;11.40;100.00;97061.25;5029826;28;20935;-74
2023/03/30 10:06:38;;;;;;;11.55;3.75;;;12.20;99.90;;;11.51;100.00;97048.78;5032493;28;20429;-74
2023/03/30 10:09:10;;;;;;;10.43;3.95;;;12.30;99.90;;;11.75;100.00;97046.44;5029556;28;20754;-75
2023/03/30 10:11:41;;;;;;;6.95;3.70;;;12.50;99.90;;;11.92;100.00;97049.59;5029597;28;20407;-75
2023/03/30 10:14:26;;;;;;;8.23;3.42;;;12.70;99.90;;;11.99;100.00;97058.06;5031707;28;20414;-75
2023/03/30 10:16:54;;;;;;;9.05;3.80;;;12.60;99.90;;;12.00;100.00;97052.50;5031528;28;20403;-75